sensor_id;sensor_type;location;lat;lon;timestamp;temperature;humidity
13251;DHT22;6692;50.710;7.180;2022-12-18T00:01:30;-4.60;99.90
13251;DHT22;6692;50.710;7.180;2022-12-18T00:03:29;-4.60;99.90
13251;DHT22;6692;50.710;7.180;2022-12-18T00:05:30;-4.60;99.90
13251;DHT22;6692;50.710;7.180;2022-12-18T00:07:30;-4.60;99.90
13251;DHT22;6692;50.710;7.180;2022-12-18T00:09:31;-4.60;99.90
13251;DHT22;6692;50.710;7.180;2022-12-18T00:11:32;-4.70;99.90
13251;DHT22;6692;50.710;7.180;2022-12-18T00:13:33;-4.70;99.90
13251;DHT22;6692;50.710;7.180;2022-12-18T00:15:34;-4.70;99.90
13251;DHT22;6692;50.710;7.180;2022-12-18T00:17:35;-4.70;99.90
13251;DHT22;6692;50.710;7.180;2022-12-18T00:19:36;-4.70;99.90
13251;DHT22;6692;50.710;7.180;2022-12-18T00:21:37;-4.80;99.90
13251;DHT22;6692;50.710;7.180;2022-12-18T00:23:38;-4.80;99.90
13251;DHT22;6692;50.710;7.180;2022-12-18T00:25:38;-4.90;99.90
13251;DHT22;6692;50.710;7.180;2022-12-18T00:27:39;-4.90;99.90
13251;DHT22;6692;50.710;7.180;2022-12-18T00:29:39;-4.90;99.90
13251;DHT22;6692;50.710;7.180;2022-12-18T00:31:40;-4.90;99.90
13251;DHT22;6692;50.710;7.180;2022-12-18T00:33:40;-4.90;99.90
13251;DHT22;6692;50.710;7.180;2022-12-18T00:35:41;-4.90;99.90
13251;DHT22;6692;50.710;7.180;2022-12-18T00:37:43;-5.00;99.90
13251;DHT22;6692;50.710;7.180;2022-12-18T00:39:43;-5.00;99.90
13251;DHT22;6692;50.710;7.180;2022-12-18T00:41:44;-5.00;99.90
13251;DHT22;6692;50.710;7.180;2022-12-18T00:43:52;-5.10;99.90
13251;DHT22;6692;50.710;7.180;2022-12-18T00:45:53;-5.20;99.90
13251;DHT22;6692;50.710;7.180;2022-12-18T00:47:55;-5.20;99.90
13251;DHT22;6692;50.710;7.180;2022-12-18T00:49:54;-5.20;99.90
13251;DHT22;6692;50.710;7.180;2022-12-18T00:51:55;-5.20;99.90
13251;DHT22;6692;50.710;7.180;2022-12-18T00:53:56;-5.20;99.90
13251;DHT22;6692;50.710;7.180;2022-12-18T00:55:57;-5.30;99.90
13251;DHT22;6692;50.710;7.180;2022-12-18T00:57:58;-5.30;99.90
13251;DHT22;6692;50.710;7.180;2022-12-18T00:59:58;-5.30;99.90
13251;DHT22;6692;50.710;7.180;2022-12-18T01:01:59;-5.40;99.90
13251;DHT22;6692;50.710;7.180;2022-12-18T01:04:01;-5.50;99.90
13251;DHT22;6692;50.710;7.180;2022-12-18T01:06:07;-5.40;99.90
13251;DHT22;6692;50.710;7.180;2022-12-18T01:08:08;-5.40;99.90
13251;DHT22;6692;50.710;7.180;2022-12-18T01:10:09;-5.50;99.90
13251;DHT22;6692;50.710;7.180;2022-12-18T01:12:10;-5.50;99.90
13251;DHT22;6692;50.710;7.180;2022-12-18T01:14:10;-5.50;99.90
13251;DHT22;6692;50.710;7.180;2022-12-18T01:16:12;-5.40;99.90
13251;DHT22;6692;50.710;7.180;2022-12-18T01:18:12;-5.40;99.90
13251;DHT22;6692;50.710;7.180;2022-12-18T01:20:12;-5.40;99.90
13251;DHT22;6692;50.710;7.180;2022-12-18T01:22:13;-5.50;99.90
13251;DHT22;6692;50.710;7.180;2022-12-18T01:24:13;-5.50;99.90
13251;DHT22;6692;50.710;7.180;2022-12-18T01:26:15;-5.60;99.90
13251;DHT22;6692;50.710;7.180;2022-12-18T01:28:15;-5.50;99.90
13251;DHT22;6692;50.710;7.180;2022-12-18T01:30:16;-5.60;99.90
13251;DHT22;6692;50.710;7.180;2022-12-18T01:32:16;-5.60;99.90
13251;DHT22;6692;50.710;7.180;2022-12-18T01:34:17;-5.60;99.90
13251;DHT22;6692;50.710;7.180;2022-12-18T01:36:19;-5.60;99.90
13251;DHT22;6692;50.710;7.180;2022-12-18T01:38:19;-5.60;99.90
13251;DHT22;6692;50.710;7.180;2022-12-18T01:40:20;-5.60;99.90
13251;DHT22;6692;50.710;7.180;2022-12-18T01:42:21;-5.60;99.90
13251;DHT22;6692;50.710;7.180;2022-12-18T01:46:35;-5.70;99.90
13251;DHT22;6692;50.710;7.180;2022-12-18T01:48:36;-5.70;99.90
13251;DHT22;6692;50.710;7.180;2022-12-18T01:50:38;-5.70;99.90
13251;DHT22;6692;50.710;7.180;2022-12-18T01:52:37;-5.80;99.90
13251;DHT22;6692;50.710;7.180;2022-12-18T01:54:39;-5.80;99.90
13251;DHT22;6692;50.710;7.180;2022-12-18T01:56:40;-5.80;99.90
13251;DHT22;6692;50.710;7.180;2022-12-18T01:59:03;-5.70;99.90
13251;DHT22;6692;50.710;7.180;2022-12-18T02:01:02;-5.70;99.90
13251;DHT22;6692;50.710;7.180;2022-12-18T02:03:04;-5.80;99.90
13251;DHT22;6692;50.710;7.180;2022-12-18T02:05:05;-5.80;99.90
13251;DHT22;6692;50.710;7.180;2022-12-18T02:07:34;-5.70;99.90
13251;DHT22;6692;50.710;7.180;2022-12-18T02:09:35;-5.80;99.90
13251;DHT22;6692;50.710;7.180;2022-12-18T02:12:11;-5.90;99.90
13251;DHT22;6692;50.710;7.180;2022-12-18T02:14:04;-5.90;99.90
13251;DHT22;6692;50.710;7.180;2022-12-18T02:18:25;-5.90;99.90
13251;DHT22;6692;50.710;7.180;2022-12-18T02:20:32;-5.90;99.90
13251;DHT22;6692;50.710;7.180;2022-12-18T02:25:05;-5.90;99.90
13251;DHT22;6692;50.710;7.180;2022-12-18T02:27:03;-5.90;99.90
13251;DHT22;6692;50.710;7.180;2022-12-18T02:29:03;-5.90;99.90
13251;DHT22;6692;50.710;7.180;2022-12-18T02:31:04;-5.90;99.90
13251;DHT22;6692;50.710;7.180;2022-12-18T02:33:04;-5.90;99.90
13251;DHT22;6692;50.710;7.180;2022-12-18T02:35:06;-5.90;99.90
13251;DHT22;6692;50.710;7.180;2022-12-18T02:37:08;-5.90;99.90
13251;DHT22;6692;50.710;7.180;2022-12-18T02:39:09;-5.80;99.90
13251;DHT22;6692;50.710;7.180;2022-12-18T02:41:08;-5.80;99.90
13251;DHT22;6692;50.710;7.180;2022-12-18T02:43:10;-5.70;99.90
13251;DHT22;6692;50.710;7.180;2022-12-18T02:45:10;-5.70;99.90
13251;DHT22;6692;50.710;7.180;2022-12-18T02:47:12;-5.70;99.90
13251;DHT22;6692;50.710;7.180;2022-12-18T02:49:26;-5.70;99.90
13251;DHT22;6692;50.710;7.180;2022-12-18T02:51:29;-5.60;99.90
13251;DHT22;6692;50.710;7.180;2022-12-18T02:53:29;-5.60;99.90
13251;DHT22;6692;50.710;7.180;2022-12-18T02:55:41;-5.60;99.90
13251;DHT22;6692;50.710;7.180;2022-12-18T02:57:38;-5.60;99.90
13251;DHT22;6692;50.710;7.180;2022-12-18T02:59:40;-5.60;99.90
13251;DHT22;6692;50.710;7.180;2022-12-18T03:01:51;-5.60;99.90
13251;DHT22;6692;50.710;7.180;2022-12-18T03:03:52;-5.60;99.90
13251;DHT22;6692;50.710;7.180;2022-12-18T03:05:53;-5.60;99.90
13251;DHT22;6692;50.710;7.180;2022-12-18T03:07:57;-5.60;99.90
13251;DHT22;6692;50.710;7.180;2022-12-18T03:09:57;-5.60;99.90
13251;DHT22;6692;50.710;7.180;2022-12-18T03:12:02;-5.60;99.90
13251;DHT22;6692;50.710;7.180;2022-12-18T03:14:05;-5.50;99.90
13251;DHT22;6692;50.710;7.180;2022-12-18T03:16:06;-5.50;99.90
13251;DHT22;6692;50.710;7.180;2022-12-18T03:18:12;-5.50;99.90
13251;DHT22;6692;50.710;7.180;2022-12-18T03:20:12;-5.60;99.90
13251;DHT22;6692;50.710;7.180;2022-12-18T03:22:13;-5.50;99.90
13251;DHT22;6692;50.710;7.180;2022-12-18T03:24:13;-5.60;99.90
13251;DHT22;6692;50.710;7.180;2022-12-18T03:26:16;-5.60;99.90
13251;DHT22;6692;50.710;7.180;2022-12-18T03:28:17;-5.60;99.90
13251;DHT22;6692;50.710;7.180;2022-12-18T03:30:17;-5.60;99.90
13251;DHT22;6692;50.710;7.180;2022-12-18T03:32:24;-5.70;99.90
13251;DHT22;6692;50.710;7.180;2022-12-18T03:34:23;-5.70;99.90
13251;DHT22;6692;50.710;7.180;2022-12-18T03:36:23;-5.70;99.90
13251;DHT22;6692;50.710;7.180;2022-12-18T03:38:24;-5.70;99.90
13251;DHT22;6692;50.710;7.180;2022-12-18T03:42:32;-5.80;99.90
13251;DHT22;6692;50.710;7.180;2022-12-18T03:44:32;-5.80;99.90
13251;DHT22;6692;50.710;7.180;2022-12-18T03:46:33;-5.80;99.90
13251;DHT22;6692;50.710;7.180;2022-12-18T03:48:38;-5.80;99.90
13251;DHT22;6692;50.710;7.180;2022-12-18T03:50:57;-5.80;99.90
13251;DHT22;6692;50.710;7.180;2022-12-18T03:53:00;-5.80;99.90
13251;DHT22;6692;50.710;7.180;2022-12-18T03:54:58;-5.90;99.90
13251;DHT22;6692;50.710;7.180;2022-12-18T03:57:20;-5.90;99.90
13251;DHT22;6692;50.710;7.180;2022-12-18T03:59:20;-6.00;99.90
13251;DHT22;6692;50.710;7.180;2022-12-18T04:01:22;-6.00;99.90
13251;DHT22;6692;50.710;7.180;2022-12-18T04:03:22;-6.00;99.90
13251;DHT22;6692;50.710;7.180;2022-12-18T04:05:23;-6.00;99.90
13251;DHT22;6692;50.710;7.180;2022-12-18T04:07:23;-6.00;99.90
13251;DHT22;6692;50.710;7.180;2022-12-18T04:09:24;-6.00;99.90
13251;DHT22;6692;50.710;7.180;2022-12-18T04:11:24;-6.10;99.90
13251;DHT22;6692;50.710;7.180;2022-12-18T04:13:28;-6.10;99.90
13251;DHT22;6692;50.710;7.180;2022-12-18T04:15:28;-6.10;99.90
13251;DHT22;6692;50.710;7.180;2022-12-18T04:17:29;-6.10;99.90
13251;DHT22;6692;50.710;7.180;2022-12-18T04:19:30;-6.20;99.90
13251;DHT22;6692;50.710;7.180;2022-12-18T04:21:30;-6.20;99.90
13251;DHT22;6692;50.710;7.180;2022-12-18T04:23:31;-6.10;99.90
13251;DHT22;6692;50.710;7.180;2022-12-18T04:25:32;-6.10;99.90
13251;DHT22;6692;50.710;7.180;2022-12-18T04:27:33;-6.10;99.90
13251;DHT22;6692;50.710;7.180;2022-12-18T04:29:35;-6.10;99.90
13251;DHT22;6692;50.710;7.180;2022-12-18T04:31:36;-6.10;99.90
13251;DHT22;6692;50.710;7.180;2022-12-18T04:33:36;-6.10;99.90
13251;DHT22;6692;50.710;7.180;2022-12-18T04:35:37;-6.20;99.90
13251;DHT22;6692;50.710;7.180;2022-12-18T04:37:38;-6.30;99.90
13251;DHT22;6692;50.710;7.180;2022-12-18T04:39:39;-6.30;99.90
13251;DHT22;6692;50.710;7.180;2022-12-18T04:41:40;-6.20;99.90
13251;DHT22;6692;50.710;7.180;2022-12-18T04:43:40;-6.30;99.90
13251;DHT22;6692;50.710;7.180;2022-12-18T04:45:41;-6.40;99.90
13251;DHT22;6692;50.710;7.180;2022-12-18T04:47:42;-6.30;99.90
13251;DHT22;6692;50.710;7.180;2022-12-18T04:49:42;-6.30;99.90
13251;DHT22;6692;50.710;7.180;2022-12-18T04:51:43;-6.40;99.90
13251;DHT22;6692;50.710;7.180;2022-12-18T04:53:44;-6.40;99.90
13251;DHT22;6692;50.710;7.180;2022-12-18T04:55:44;-6.40;99.90
13251;DHT22;6692;50.710;7.180;2022-12-18T04:57:45;-6.50;99.90
13251;DHT22;6692;50.710;7.180;2022-12-18T04:59:46;-6.50;99.90
13251;DHT22;6692;50.710;7.180;2022-12-18T05:01:47;-6.50;99.90
13251;DHT22;6692;50.710;7.180;2022-12-18T05:03:48;-6.50;99.90
13251;DHT22;6692;50.710;7.180;2022-12-18T05:05:50;-6.50;99.90
13251;DHT22;6692;50.710;7.180;2022-12-18T05:07:51;-6.50;99.90
13251;DHT22;6692;50.710;7.180;2022-12-18T05:09:53;-6.50;99.90
13251;DHT22;6692;50.710;7.180;2022-12-18T05:11:54;-6.40;99.90
13251;DHT22;6692;50.710;7.180;2022-12-18T05:13:54;-6.50;99.90
13251;DHT22;6692;50.710;7.180;2022-12-18T05:15:55;-6.40;99.90
13251;DHT22;6692;50.710;7.180;2022-12-18T05:17:57;-6.40;99.90
13251;DHT22;6692;50.710;7.180;2022-12-18T05:19:57;-6.40;99.90
13251;DHT22;6692;50.710;7.180;2022-12-18T05:21:59;-6.40;99.90
13251;DHT22;6692;50.710;7.180;2022-12-18T05:23:59;-6.40;99.90
13251;DHT22;6692;50.710;7.180;2022-12-18T05:26:01;-6.40;99.90
13251;DHT22;6692;50.710;7.180;2022-12-18T05:28:01;-6.40;99.90
13251;DHT22;6692;50.710;7.180;2022-12-18T05:30:02;-6.40;99.90
13251;DHT22;6692;50.710;7.180;2022-12-18T05:32:03;-6.50;99.90
13251;DHT22;6692;50.710;7.180;2022-12-18T05:34:04;-6.40;99.90
13251;DHT22;6692;50.710;7.180;2022-12-18T05:36:05;-6.50;99.90
13251;DHT22;6692;50.710;7.180;2022-12-18T05:38:05;-6.50;99.90
13251;DHT22;6692;50.710;7.180;2022-12-18T05:40:07;-6.50;99.90
13251;DHT22;6692;50.710;7.180;2022-12-18T05:42:09;-6.60;99.90
13251;DHT22;6692;50.710;7.180;2022-12-18T05:44:11;-6.60;99.90
13251;DHT22;6692;50.710;7.180;2022-12-18T05:46:12;-6.60;99.90
13251;DHT22;6692;50.710;7.180;2022-12-18T05:48:13;-6.60;99.90
13251;DHT22;6692;50.710;7.180;2022-12-18T05:50:13;-6.60;99.90
13251;DHT22;6692;50.710;7.180;2022-12-18T05:52:14;-6.60;99.90
13251;DHT22;6692;50.710;7.180;2022-12-18T05:54:15;-6.60;99.90
13251;DHT22;6692;50.710;7.180;2022-12-18T05:56:19;-6.60;99.90
13251;DHT22;6692;50.710;7.180;2022-12-18T05:58:17;-6.70;99.90
13251;DHT22;6692;50.710;7.180;2022-12-18T06:00:18;-6.60;99.90
13251;DHT22;6692;50.710;7.180;2022-12-18T06:02:19;-6.60;99.90
13251;DHT22;6692;50.710;7.180;2022-12-18T06:04:19;-6.60;99.90
13251;DHT22;6692;50.710;7.180;2022-12-18T06:06:21;-6.70;99.90
13251;DHT22;6692;50.710;7.180;2022-12-18T06:08:21;-6.60;99.90
13251;DHT22;6692;50.710;7.180;2022-12-18T06:10:21;-6.70;99.90
13251;DHT22;6692;50.710;7.180;2022-12-18T06:12:22;-6.60;99.90
13251;DHT22;6692;50.710;7.180;2022-12-18T06:14:23;-6.60;99.90
13251;DHT22;6692;50.710;7.180;2022-12-18T06:16:25;-6.60;99.90
13251;DHT22;6692;50.710;7.180;2022-12-18T06:18:25;-6.70;99.90
13251;DHT22;6692;50.710;7.180;2022-12-18T06:20:25;-6.60;99.90
13251;DHT22;6692;50.710;7.180;2022-12-18T06:22:27;-6.60;99.90
13251;DHT22;6692;50.710;7.180;2022-12-18T06:24:27;-6.60;99.90
13251;DHT22;6692;50.710;7.180;2022-12-18T06:26:28;-6.60;99.90
13251;DHT22;6692;50.710;7.180;2022-12-18T06:28:28;-6.60;99.90
13251;DHT22;6692;50.710;7.180;2022-12-18T06:30:29;-6.60;99.90
13251;DHT22;6692;50.710;7.180;2022-12-18T06:32:30;-6.60;99.90
13251;DHT22;6692;50.710;7.180;2022-12-18T06:34:30;-6.60;99.90
13251;DHT22;6692;50.710;7.180;2022-12-18T06:36:31;-6.60;99.90
13251;DHT22;6692;50.710;7.180;2022-12-18T06:38:32;-6.60;99.90
13251;DHT22;6692;50.710;7.180;2022-12-18T06:40:33;-6.60;99.90
13251;DHT22;6692;50.710;7.180;2022-12-18T06:42:34;-6.60;99.90
13251;DHT22;6692;50.710;7.180;2022-12-18T06:44:35;-6.60;99.90
13251;DHT22;6692;50.710;7.180;2022-12-18T06:46:35;-6.60;99.90
13251;DHT22;6692;50.710;7.180;2022-12-18T06:48:36;-6.60;99.90
13251;DHT22;6692;50.710;7.180;2022-12-18T06:50:36;-6.60;99.90
13251;DHT22;6692;50.710;7.180;2022-12-18T06:52:37;-6.60;99.90
13251;DHT22;6692;50.710;7.180;2022-12-18T06:54:39;-6.50;99.90
13251;DHT22;6692;50.710;7.180;2022-12-18T06:56:39;-6.60;99.90
13251;DHT22;6692;50.710;7.180;2022-12-18T06:58:40;-6.50;99.90
13251;DHT22;6692;50.710;7.180;2022-12-18T07:00:41;-6.50;99.90
13251;DHT22;6692;50.710;7.180;2022-12-18T07:02:42;-6.50;99.90
13251;DHT22;6692;50.710;7.180;2022-12-18T07:04:43;-6.50;99.90
13251;DHT22;6692;50.710;7.180;2022-12-18T07:06:44;-6.50;99.90
13251;DHT22;6692;50.710;7.180;2022-12-18T07:08:44;-6.60;99.90
13251;DHT22;6692;50.710;7.180;2022-12-18T07:10:46;-6.60;99.90
13251;DHT22;6692;50.710;7.180;2022-12-18T07:12:47;-6.70;99.90
13251;DHT22;6692;50.710;7.180;2022-12-18T07:14:48;-6.70;99.90
13251;DHT22;6692;50.710;7.180;2022-12-18T07:16:49;-6.60;99.90
13251;DHT22;6692;50.710;7.180;2022-12-18T07:18:50;-6.60;99.90
13251;DHT22;6692;50.710;7.180;2022-12-18T07:20:52;-6.70;99.90
13251;DHT22;6692;50.710;7.180;2022-12-18T07:22:52;-6.70;99.90
13251;DHT22;6692;50.710;7.180;2022-12-18T07:24:53;-6.70;99.90
13251;DHT22;6692;50.710;7.180;2022-12-18T07:26:54;-6.70;99.90
13251;DHT22;6692;50.710;7.180;2022-12-18T07:28:55;-6.70;99.90
13251;DHT22;6692;50.710;7.180;2022-12-18T07:30:55;-6.70;99.90
13251;DHT22;6692;50.710;7.180;2022-12-18T07:32:56;-6.70;99.90
13251;DHT22;6692;50.710;7.180;2022-12-18T07:34:58;-6.60;99.90
13251;DHT22;6692;50.710;7.180;2022-12-18T07:36:58;-6.60;99.90
13251;DHT22;6692;50.710;7.180;2022-12-18T07:38:59;-6.60;99.90
13251;DHT22;6692;50.710;7.180;2022-12-18T07:41:00;-6.60;99.90
13251;DHT22;6692;50.710;7.180;2022-12-18T07:43:00;-6.60;99.90
13251;DHT22;6692;50.710;7.180;2022-12-18T07:45:01;-6.60;99.90
13251;DHT22;6692;50.710;7.180;2022-12-18T07:47:02;-6.60;99.90
13251;DHT22;6692;50.710;7.180;2022-12-18T07:49:03;-6.60;99.90
13251;DHT22;6692;50.710;7.180;2022-12-18T07:51:04;-6.60;99.90
13251;DHT22;6692;50.710;7.180;2022-12-18T07:53:04;-6.60;99.90
13251;DHT22;6692;50.710;7.180;2022-12-18T07:55:06;-6.50;99.90
13251;DHT22;6692;50.710;7.180;2022-12-18T07:57:08;-6.40;99.90
13251;DHT22;6692;50.710;7.180;2022-12-18T07:59:09;-6.40;99.90
13251;DHT22;6692;50.710;7.180;2022-12-18T08:01:10;-6.40;99.90
13251;DHT22;6692;50.710;7.180;2022-12-18T08:03:10;-6.30;99.90
13251;DHT22;6692;50.710;7.180;2022-12-18T08:05:11;-6.30;99.90
13251;DHT22;6692;50.710;7.180;2022-12-18T08:07:11;-6.30;99.90
13251;DHT22;6692;50.710;7.180;2022-12-18T08:09:12;-6.20;99.90
13251;DHT22;6692;50.710;7.180;2022-12-18T08:11:13;-6.20;99.90
13251;DHT22;6692;50.710;7.180;2022-12-18T08:13:14;-6.10;99.90
13251;DHT22;6692;50.710;7.180;2022-12-18T08:15:15;-6.20;99.90
13251;DHT22;6692;50.710;7.180;2022-12-18T08:17:15;-6.10;99.90
13251;DHT22;6692;50.710;7.180;2022-12-18T08:19:16;-6.10;99.90
13251;DHT22;6692;50.710;7.180;2022-12-18T08:21:18;-6.00;99.90
13251;DHT22;6692;50.710;7.180;2022-12-18T08:23:18;-5.90;99.90
13251;DHT22;6692;50.710;7.180;2022-12-18T08:25:19;-5.90;99.90
13251;DHT22;6692;50.710;7.180;2022-12-18T08:27:20;-5.90;99.90
13251;DHT22;6692;50.710;7.180;2022-12-18T08:29:21;-5.80;99.90
13251;DHT22;6692;50.710;7.180;2022-12-18T08:31:22;-5.80;99.90
13251;DHT22;6692;50.710;7.180;2022-12-18T08:33:24;-5.80;99.90
13251;DHT22;6692;50.710;7.180;2022-12-18T08:35:24;-5.80;99.90
13251;DHT22;6692;50.710;7.180;2022-12-18T08:37:25;-5.70;99.90
13251;DHT22;6692;50.710;7.180;2022-12-18T08:39:26;-5.60;99.90
13251;DHT22;6692;50.710;7.180;2022-12-18T08:41:26;-5.50;99.90
13251;DHT22;6692;50.710;7.180;2022-12-18T08:43:27;-5.50;99.90
13251;DHT22;6692;50.710;7.180;2022-12-18T08:45:34;-5.40;99.90
13251;DHT22;6692;50.710;7.180;2022-12-18T08:47:35;-5.30;99.90
13251;DHT22;6692;50.710;7.180;2022-12-18T08:49:35;-5.20;99.90
13251;DHT22;6692;50.710;7.180;2022-12-18T08:51:37;-5.20;99.90
13251;DHT22;6692;50.710;7.180;2022-12-18T08:53:38;-5.00;99.90
13251;DHT22;6692;50.710;7.180;2022-12-18T08:55:39;-5.00;99.90
13251;DHT22;6692;50.710;7.180;2022-12-18T08:57:40;-5.00;99.90
13251;DHT22;6692;50.710;7.180;2022-12-18T08:59:40;-4.90;99.90
13251;DHT22;6692;50.710;7.180;2022-12-18T09:01:41;-4.90;99.90
13251;DHT22;6692;50.710;7.180;2022-12-18T09:03:42;-4.70;99.90
13251;DHT22;6692;50.710;7.180;2022-12-18T09:05:43;-4.70;99.90
13251;DHT22;6692;50.710;7.180;2022-12-18T09:07:43;-4.60;99.90
13251;DHT22;6692;50.710;7.180;2022-12-18T09:09:44;-4.40;99.90
13251;DHT22;6692;50.710;7.180;2022-12-18T09:11:45;-4.30;99.90
13251;DHT22;6692;50.710;7.180;2022-12-18T09:13:45;-4.20;99.90
13251;DHT22;6692;50.710;7.180;2022-12-18T09:15:48;-3.90;99.90
13251;DHT22;6692;50.710;7.180;2022-12-18T09:17:47;-4.00;99.90
13251;DHT22;6692;50.710;7.180;2022-12-18T09:19:48;-3.90;99.90
13251;DHT22;6692;50.710;7.180;2022-12-18T09:21:49;-3.80;99.90
13251;DHT22;6692;50.710;7.180;2022-12-18T09:23:50;-3.70;99.90
13251;DHT22;6692;50.710;7.180;2022-12-18T09:25:50;-3.60;99.90
13251;DHT22;6692;50.710;7.180;2022-12-18T09:27:51;-3.60;99.90
13251;DHT22;6692;50.710;7.180;2022-12-18T09:29:51;-3.50;99.90
13251;DHT22;6692;50.710;7.180;2022-12-18T09:31:52;-3.50;99.90
13251;DHT22;6692;50.710;7.180;2022-12-18T09:33:54;-3.40;99.90
13251;DHT22;6692;50.710;7.180;2022-12-18T09:35:54;-3.30;99.90
13251;DHT22;6692;50.710;7.180;2022-12-18T09:37:55;-3.10;99.90
13251;DHT22;6692;50.710;7.180;2022-12-18T09:39:56;-3.20;99.90
13251;DHT22;6692;50.710;7.180;2022-12-18T09:41:57;-3.00;99.90
13251;DHT22;6692;50.710;7.180;2022-12-18T09:44:00;-2.90;99.90
13251;DHT22;6692;50.710;7.180;2022-12-18T09:46:01;-2.80;99.90
13251;DHT22;6692;50.710;7.180;2022-12-18T09:48:01;-2.70;99.90
13251;DHT22;6692;50.710;7.180;2022-12-18T09:50:03;-2.70;99.90
13251;DHT22;6692;50.710;7.180;2022-12-18T09:52:05;-2.50;99.90
13251;DHT22;6692;50.710;7.180;2022-12-18T09:54:05;-2.40;99.90
13251;DHT22;6692;50.710;7.180;2022-12-18T09:56:05;-2.30;99.90
13251;DHT22;6692;50.710;7.180;2022-12-18T09:58:07;-2.30;99.90
13251;DHT22;6692;50.710;7.180;2022-12-18T10:00:24;-2.30;99.90
13251;DHT22;6692;50.710;7.180;2022-12-18T10:02:25;-2.20;99.90
13251;DHT22;6692;50.710;7.180;2022-12-18T10:04:25;-2.10;99.90
13251;DHT22;6692;50.710;7.180;2022-12-18T10:06:34;-2.00;99.90
13251;DHT22;6692;50.710;7.180;2022-12-18T10:08:52;-1.90;99.90
13251;DHT22;6692;50.710;7.180;2022-12-18T10:10:51;-1.80;99.90
13251;DHT22;6692;50.710;7.180;2022-12-18T10:12:56;-1.70;99.90
13251;DHT22;6692;50.710;7.180;2022-12-18T10:14:58;-1.70;99.90
13251;DHT22;6692;50.710;7.180;2022-12-18T10:17:03;-1.60;99.90
13251;DHT22;6692;50.710;7.180;2022-12-18T10:19:24;-1.50;99.90
13251;DHT22;6692;50.710;7.180;2022-12-18T10:21:23;-1.40;99.90
13251;DHT22;6692;50.710;7.180;2022-12-18T10:23:43;-1.30;99.90
13251;DHT22;6692;50.710;7.180;2022-12-18T10:28:07;-1.00;99.90
13251;DHT22;6692;50.710;7.180;2022-12-18T10:30:04;-1.10;99.90
13251;DHT22;6692;50.710;7.180;2022-12-18T10:32:02;-1.00;99.90
13251;DHT22;6692;50.710;7.180;2022-12-18T10:34:02;-0.90;99.90
13251;DHT22;6692;50.710;7.180;2022-12-18T10:36:05;-0.80;99.90
13251;DHT22;6692;50.710;7.180;2022-12-18T10:38:22;-0.80;99.90
13251;DHT22;6692;50.710;7.180;2022-12-18T10:40:22;-0.70;99.90
13251;DHT22;6692;50.710;7.180;2022-12-18T10:42:23;-0.70;99.90
13251;DHT22;6692;50.710;7.180;2022-12-18T10:44:26;-0.60;99.90
13251;DHT22;6692;50.710;7.180;2022-12-18T10:46:27;-0.50;99.90
13251;DHT22;6692;50.710;7.180;2022-12-18T10:48:28;-0.50;99.90
13251;DHT22;6692;50.710;7.180;2022-12-18T10:50:33;-0.50;99.90
13251;DHT22;6692;50.710;7.180;2022-12-18T10:52:32;-0.40;99.90
13251;DHT22;6692;50.710;7.180;2022-12-18T10:54:33;-0.30;99.90
13251;DHT22;6692;50.710;7.180;2022-12-18T10:56:35;-0.30;99.90
13251;DHT22;6692;50.710;7.180;2022-12-18T10:58:36;-0.20;99.90
13251;DHT22;6692;50.710;7.180;2022-12-18T11:00:36;-0.20;99.90
13251;DHT22;6692;50.710;7.180;2022-12-18T11:02:38;-0.10;99.90
13251;DHT22;6692;50.710;7.180;2022-12-18T11:04:50;-0.10;99.90
13251;DHT22;6692;50.710;7.180;2022-12-18T11:06:52;0.00;99.90
13251;DHT22;6692;50.710;7.180;2022-12-18T11:08:40;0.10;99.90
13251;DHT22;6692;50.710;7.180;2022-12-18T11:10:40;0.20;99.90
13251;DHT22;6692;50.710;7.180;2022-12-18T11:12:42;0.20;99.90
13251;DHT22;6692;50.710;7.180;2022-12-18T11:14:44;0.20;99.90
13251;DHT22;6692;50.710;7.180;2022-12-18T11:16:44;0.20;99.90
13251;DHT22;6692;50.710;7.180;2022-12-18T11:18:44;0.30;99.90
13251;DHT22;6692;50.710;7.180;2022-12-18T11:20:49;0.40;99.90
13251;DHT22;6692;50.710;7.180;2022-12-18T11:24:56;0.40;99.90
13251;DHT22;6692;50.710;7.180;2022-12-18T11:26:57;0.40;99.90
13251;DHT22;6692;50.710;7.180;2022-12-18T11:29:15;0.40;99.90
13251;DHT22;6692;50.710;7.180;2022-12-18T11:31:19;0.40;99.90
13251;DHT22;6692;50.710;7.180;2022-12-18T11:33:20;0.40;99.90
13251;DHT22;6692;50.710;7.180;2022-12-18T11:35:35;0.40;99.90
13251;DHT22;6692;50.710;7.180;2022-12-18T11:37:36;0.40;99.90
13251;DHT22;6692;50.710;7.180;2022-12-18T11:39:39;0.40;99.90
13251;DHT22;6692;50.710;7.180;2022-12-18T11:41:41;0.30;99.90
13251;DHT22;6692;50.710;7.180;2022-12-18T11:43:56;0.30;99.90
13251;DHT22;6692;50.710;7.180;2022-12-18T11:46:00;0.30;99.90
13251;DHT22;6692;50.710;7.180;2022-12-18T11:50:21;0.30;99.90
13251;DHT22;6692;50.710;7.180;2022-12-18T11:52:22;0.30;99.90
13251;DHT22;6692;50.710;7.180;2022-12-18T11:54:22;0.30;99.90
13251;DHT22;6692;50.710;7.180;2022-12-18T11:56:29;0.40;99.90
13251;DHT22;6692;50.710;7.180;2022-12-18T11:58:33;0.40;99.90
13251;DHT22;6692;50.710;7.180;2022-12-18T12:00:30;0.40;99.90
13251;DHT22;6692;50.710;7.180;2022-12-18T12:02:46;0.40;99.90
13251;DHT22;6692;50.710;7.180;2022-12-18T12:04:52;0.50;99.90
13251;DHT22;6692;50.710;7.180;2022-12-18T12:07:02;0.50;99.90
13251;DHT22;6692;50.710;7.180;2022-12-18T12:09:03;0.60;99.90
13251;DHT22;6692;50.710;7.180;2022-12-18T12:11:19;0.60;99.90
13251;DHT22;6692;50.710;7.180;2022-12-18T12:13:27;0.60;99.90
13251;DHT22;6692;50.710;7.180;2022-12-18T12:15:57;0.60;99.90
13251;DHT22;6692;50.710;7.180;2022-12-18T12:18:06;0.60;99.90
13251;DHT22;6692;50.710;7.180;2022-12-18T12:20:34;0.60;99.90
13251;DHT22;6692;50.710;7.180;2022-12-18T12:22:32;0.60;99.90
13251;DHT22;6692;50.710;7.180;2022-12-18T12:24:37;0.70;99.90
13251;DHT22;6692;50.710;7.180;2022-12-18T12:26:38;0.70;99.90
13251;DHT22;6692;50.710;7.180;2022-12-18T12:28:50;0.80;99.90
13251;DHT22;6692;50.710;7.180;2022-12-18T12:33:09;0.80;99.90
13251;DHT22;6692;50.710;7.180;2022-12-18T12:35:25;0.80;99.90
13251;DHT22;6692;50.710;7.180;2022-12-18T12:38:19;0.80;99.90
13251;DHT22;6692;50.710;7.180;2022-12-18T12:40:01;0.80;99.90
13251;DHT22;6692;50.710;7.180;2022-12-18T12:42:04;0.90;99.90
13251;DHT22;6692;50.710;7.180;2022-12-18T12:44:13;0.90;99.90
13251;DHT22;6692;50.710;7.180;2022-12-18T12:46:11;0.80;99.90
13251;DHT22;6692;50.710;7.180;2022-12-18T12:48:18;0.90;99.90
13251;DHT22;6692;50.710;7.180;2022-12-18T12:50:17;0.90;99.90
13251;DHT22;6692;50.710;7.180;2022-12-18T12:52:21;0.90;99.90
13251;DHT22;6692;50.710;7.180;2022-12-18T12:54:20;0.90;99.90
13251;DHT22;6692;50.710;7.180;2022-12-18T12:56:20;0.90;99.90
13251;DHT22;6692;50.710;7.180;2022-12-18T12:58:26;0.90;99.90
13251;DHT22;6692;50.710;7.180;2022-12-18T13:00:23;0.90;99.90
13251;DHT22;6692;50.710;7.180;2022-12-18T13:02:37;1.00;99.90
13251;DHT22;6692;50.710;7.180;2022-12-18T13:06:57;1.00;99.90
13251;DHT22;6692;50.710;7.180;2022-12-18T13:08:57;0.90;99.90
13251;DHT22;6692;50.710;7.180;2022-12-18T13:10:58;1.00;99.90
13251;DHT22;6692;50.710;7.180;2022-12-18T13:13:04;1.10;99.90
13251;DHT22;6692;50.710;7.180;2022-12-18T13:15:28;1.10;99.90
13251;DHT22;6692;50.710;7.180;2022-12-18T13:17:27;1.10;99.90
13251;DHT22;6692;50.710;7.180;2022-12-18T13:19:27;1.10;99.90
13251;DHT22;6692;50.710;7.180;2022-12-18T13:21:29;1.10;99.90
13251;DHT22;6692;50.710;7.180;2022-12-18T13:23:31;1.00;99.90
13251;DHT22;6692;50.710;7.180;2022-12-18T13:25:34;1.00;99.90
13251;DHT22;6692;50.710;7.180;2022-12-18T13:27:55;1.00;99.90
13251;DHT22;6692;50.710;7.180;2022-12-18T13:29:51;1.00;99.90